createdAt,value
2022-10-14T00:02:01.649Z,3.75
2022-10-14T00:07:26.582Z,4.07
2022-10-14T00:09:59.606Z,4.13
2022-10-14T00:12:32.759Z,3.97
2022-10-14T00:17:39.157Z,6.15
2022-10-14T00:20:12.313Z,4.50
2022-10-14T00:22:46.535Z,4.25
2022-10-14T00:25:19.218Z,4.93
2022-10-14T00:27:51.998Z,3.92
2022-10-14T00:30:26.116Z,4.43
2022-10-14T00:33:02.726Z,5.43
2022-10-14T00:35:35.502Z,4.50
2022-10-14T00:38:09.695Z,4.93
2022-10-14T00:40:42.517Z,4.93
2022-10-14T00:43:15.784Z,5.65
2022-10-14T00:45:49.831Z,5.32
2022-10-14T00:51:00.445Z,4.53
2022-10-14T00:53:35.491Z,4.57
2022-10-14T00:56:10.242Z,4.95
2022-10-14T00:58:44.616Z,5.40
2022-10-14T01:01:17.865Z,4.85
2022-10-14T01:03:52.084Z,4.65
2022-10-14T01:09:14.060Z,5.25
2022-10-14T01:12:23.455Z,5.82
2022-10-14T01:14:59.872Z,5.07
2022-10-14T01:17:43.588Z,5.45
2022-10-14T01:21:05.280Z,6.38
2022-10-14T01:24:05.100Z,5.57
2022-10-14T01:26:58.111Z,5.63
2022-10-14T01:30:04.691Z,5.40
2022-10-14T01:32:46.834Z,5.38
2022-10-14T01:35:29.231Z,5.90
2022-10-14T01:38:06.811Z,5.97
2022-10-14T01:40:44.844Z,6.05
2022-10-14T01:43:19.336Z,5.50
2022-10-14T01:45:56.730Z,5.80
2022-10-14T01:48:33.929Z,6.25
2022-10-14T01:51:13.747Z,6.88
2022-10-14T01:53:54.793Z,7.43
2022-10-14T01:56:36.003Z,8.38
2022-10-14T01:59:16.148Z,7.50
2022-10-14T02:01:50.439Z,6.45
2022-10-14T02:04:24.693Z,7.47
2022-10-14T02:07:05.927Z,7.10
2022-10-14T02:09:50.515Z,6.82
2022-10-14T02:12:32.818Z,8.45
2022-10-14T02:15:15.093Z,8.80
2022-10-14T02:17:55.462Z,8.60
2022-10-14T02:20:32.245Z,8.55
2022-10-14T02:23:10.041Z,10.35
2022-10-14T02:25:46.826Z,10.30
2022-10-14T02:28:23.086Z,9.95
2022-10-14T02:31:00.673Z,11.15
2022-10-14T02:33:39.006Z,10.73
2022-10-14T02:36:17.486Z,12.23
2022-10-14T02:38:51.457Z,12.55
2022-10-14T02:41:27.260Z,14.75
2022-10-14T02:44:00.356Z,14.18
2022-10-14T02:46:36.887Z,14.50
2022-10-14T02:49:11.751Z,14.65
2022-10-14T02:51:44.704Z,13.13
2022-10-14T02:56:50.532Z,12.45
2022-10-14T02:59:23.624Z,14.27
2022-10-14T03:04:31.256Z,14.63
2022-10-14T03:07:05.833Z,15.82
2022-10-14T03:09:42.659Z,17.88
2022-10-14T03:12:16.725Z,14.73
2022-10-14T03:14:50.288Z,13.90
2022-10-14T03:17:24.480Z,14.10
2022-10-14T03:19:59.496Z,14.73
2022-10-14T03:22:32.476Z,14.32
2022-10-14T03:25:05.840Z,14.75
2022-10-14T03:27:47.999Z,15.93
2022-10-14T03:30:20.852Z,15.15
2022-10-14T03:33:04.034Z,15.10
2022-10-14T03:36:00.530Z,14.55
2022-10-14T03:38:46.217Z,15.35
2022-10-14T03:41:29.836Z,15.52
2022-10-14T03:44:03.311Z,14.38
2022-10-14T03:46:38.744Z,15.15
2022-10-14T03:49:11.747Z,19.15
2022-10-14T03:51:45.915Z,15.88
2022-10-14T03:54:25.380Z,18.63
2022-10-14T03:59:33.685Z,21.13
2022-10-14T04:02:07.045Z,20.60
2022-10-14T04:04:39.929Z,16.95
2022-10-14T04:07:14.173Z,18.65
2022-10-14T04:09:54.246Z,19.50
2022-10-14T04:12:27.122Z,20.58
2022-10-14T04:15:12.327Z,19.13
2022-10-14T04:18:05.037Z,25.07
2022-10-14T04:20:38.486Z,22.17
2022-10-14T04:23:13.592Z,20.25
2022-10-14T04:25:48.328Z,19.05
2022-10-14T04:28:22.684Z,18.02
2022-10-14T04:31:04.739Z,18.63
2022-10-14T04:33:49.836Z,19.83
2022-10-14T04:36:28.608Z,19.80
2022-10-14T04:39:06.077Z,17.55
2022-10-14T04:41:40.658Z,18.58
2022-10-14T04:44:15.042Z,19.25
2022-10-14T04:46:53.921Z,18.40
2022-10-14T04:49:29.816Z,18.60
2022-10-14T04:52:15.502Z,17.95
2022-10-14T04:55:10.838Z,18.65
2022-10-14T04:57:48.248Z,18.75
2022-10-14T05:00:21.643Z,18.95
2022-10-14T05:03:14.739Z,17.35
2022-10-14T05:05:48.293Z,16.58
2022-10-14T05:11:00.157Z,15.75
2022-10-14T05:13:48.147Z,15.02
2022-10-14T05:16:22.334Z,15.38
2022-10-14T05:18:55.579Z,14.55
2022-10-14T05:21:29.519Z,15.45
2022-10-14T05:24:09.221Z,14.70
2022-10-14T05:26:55.383Z,14.18
2022-10-14T05:29:28.293Z,14.15
2022-10-14T05:32:02.938Z,15.27
2022-10-14T05:40:02.723Z,15.60
2022-10-14T05:42:43.059Z,14.88
2022-10-14T05:45:16.346Z,15.98
2022-10-14T05:47:55.634Z,15.77
2022-10-14T05:50:28.599Z,14.50
2022-10-14T05:53:06.275Z,16.45
2022-10-14T05:55:46.389Z,16.73
2022-10-14T05:58:20.671Z,17.92
2022-10-14T06:00:54.223Z,17.15
2022-10-14T06:03:28.037Z,17.35
2022-10-14T06:08:36.640Z,18.77
2022-10-14T06:11:09.731Z,19.55
2022-10-14T06:13:43.893Z,20.30
2022-10-14T06:16:16.786Z,23.48
2022-10-14T06:21:27.878Z,21.50
2022-10-14T06:24:00.971Z,23.30
2022-10-14T06:29:44.169Z,26.42
2022-10-14T06:38:45.247Z,25.05
2022-10-14T06:41:21.309Z,30.58
2022-10-14T06:44:20.369Z,32.97
2022-10-14T06:47:05.087Z,35.25
2022-10-14T06:49:59.877Z,34.60
2022-10-14T06:52:34.778Z,35.55
2022-10-14T06:55:17.027Z,33.22
2022-10-14T06:58:02.051Z,34.55
2022-10-14T07:00:45.754Z,36.08
2022-10-14T07:03:24.671Z,37.47
2022-10-14T07:06:00.221Z,33.90
2022-10-14T07:08:33.522Z,33.70
2022-10-14T07:11:06.941Z,32.30
2022-10-14T07:13:40.123Z,33.85
2022-10-14T07:16:12.989Z,32.20
2022-10-14T07:18:47.208Z,31.80
2022-10-14T07:21:19.933Z,32.40
2022-10-14T07:23:55.770Z,31.25
2022-10-14T07:26:31.066Z,30.77
2022-10-14T07:29:06.023Z,30.45
2022-10-14T07:31:42.017Z,30.75
2022-10-14T07:34:16.157Z,28.23
2022-10-14T07:36:49.589Z,30.40
2022-10-14T07:39:23.847Z,28.08
2022-10-14T07:41:58.473Z,28.58
2022-10-14T07:44:31.343Z,26.95
2022-10-14T07:47:05.403Z,26.20
2022-10-14T07:49:40.247Z,26.63
2022-10-14T07:52:16.262Z,24.40
2022-10-14T07:54:49.281Z,21.83
2022-10-14T07:57:23.430Z,20.92
2022-10-14T08:00:00.690Z,20.30
2022-10-14T08:02:33.964Z,20.33
2022-10-14T08:05:37.694Z,20.42
2022-10-14T08:08:04.135Z,19.50
2022-10-14T08:10:38.128Z,19.52
2022-10-14T08:13:14.115Z,18.50
2022-10-14T08:15:50.740Z,18.60
2022-10-14T08:18:24.628Z,17.98
2022-10-14T08:20:59.325Z,17.08
2022-10-14T08:23:33.026Z,17.08
2022-10-14T08:26:06.886Z,15.80
2022-10-14T08:28:39.638Z,15.50
2022-10-14T08:31:12.603Z,16.85
2022-10-14T08:33:49.173Z,15.88
2022-10-14T08:36:23.747Z,16.05
2022-10-14T08:38:56.971Z,15.40
2022-10-14T08:41:48.148Z,13.95
2022-10-14T08:44:24.288Z,14.07
2022-10-14T08:47:01.936Z,15.15
2022-10-14T08:49:53.253Z,14.15
2022-10-14T08:52:37.965Z,16.08
2022-10-14T08:55:24.609Z,17.52
2022-10-14T08:58:02.583Z,16.05
2022-10-14T09:00:37.350Z,15.63
2022-10-14T09:03:20.496Z,15.10
2022-10-14T09:05:58.638Z,15.00
2022-10-14T09:08:38.520Z,15.65
2022-10-14T09:11:16.071Z,15.38
2022-10-14T09:13:51.767Z,15.98
2022-10-14T09:16:32.011Z,14.57
2022-10-14T09:19:08.887Z,14.20
2022-10-14T09:21:52.735Z,14.32
2022-10-14T09:24:34.137Z,14.27
2022-10-14T09:27:12.103Z,13.27
2022-10-14T09:29:50.376Z,13.52
2022-10-14T09:32:29.052Z,14.00
2022-10-14T09:35:03.179Z,13.82
2022-10-14T09:37:42.880Z,12.35
2022-10-14T09:40:23.182Z,13.57
2022-10-14T09:43:11.476Z,13.00
2022-10-14T09:45:51.623Z,12.68
2022-10-14T09:48:33.304Z,13.02
2022-10-14T09:51:10.170Z,13.85
2022-10-14T09:53:49.189Z,13.45
2022-10-14T09:56:31.835Z,13.05
2022-10-14T09:59:06.589Z,12.63
2022-10-14T10:01:42.576Z,13.70
2022-10-14T10:04:27.554Z,12.50
2022-10-14T10:07:02.235Z,11.77
2022-10-14T10:09:35.879Z,11.80
2022-10-14T10:12:26.319Z,12.63
2022-10-14T10:15:00.772Z,13.05
2022-10-14T10:17:37.229Z,14.30
2022-10-14T10:20:29.973Z,13.25
2022-10-14T10:23:25.493Z,12.77
2022-10-14T10:26:17.924Z,12.18
2022-10-14T10:28:52.721Z,11.95
2022-10-14T10:31:48.355Z,11.77
2022-10-14T10:35:06.093Z,11.05
2022-10-14T10:37:47.775Z,12.07
2022-10-14T10:40:32.436Z,11.98
2022-10-14T10:43:24.140Z,12.00
2022-10-14T10:46:13.432Z,15.38
2022-10-14T10:49:01.599Z,15.27
2022-10-14T10:51:42.402Z,15.40
2022-10-14T10:54:31.296Z,14.73
2022-10-14T10:57:14.180Z,13.70
2022-10-14T10:59:59.492Z,14.95
2022-10-14T11:02:55.975Z,13.50
2022-10-14T11:05:55.140Z,12.40
2022-10-14T11:09:03.371Z,11.52
2022-10-14T11:12:10.374Z,10.57
2022-10-14T11:15:09.944Z,8.13
2022-10-14T11:17:52.773Z,7.88
2022-10-14T11:20:37.230Z,8.32
2022-10-14T11:23:32.437Z,8.45
2022-10-14T11:26:15.869Z,8.75
2022-10-14T11:28:56.740Z,7.40
2022-10-14T11:31:39.980Z,7.80
2022-10-14T11:34:34.792Z,6.32
2022-10-14T11:37:16.420Z,7.22
2022-10-14T11:39:52.948Z,7.50
2022-10-14T11:42:44.160Z,7.22
2022-10-14T11:45:38.582Z,6.43
2022-10-14T11:48:24.489Z,6.80
2022-10-14T11:51:06.394Z,6.07
2022-10-14T11:53:47.169Z,6.53
2022-10-14T11:56:33.225Z,5.82
2022-10-14T11:59:22.393Z,5.75
2022-10-14T12:02:02.418Z,4.80
2022-10-14T12:04:40.263Z,4.88
2022-10-14T12:07:19.985Z,3.85
2022-10-14T12:10:01.148Z,3.20
2022-10-14T12:12:37.630Z,3.53
2022-10-14T12:15:19.792Z,3.20
2022-10-14T12:17:56.146Z,3.40
2022-10-14T12:20:39.001Z,3.38
2022-10-14T12:23:30.621Z,3.88
2022-10-14T12:26:11.119Z,2.72
2022-10-14T12:28:44.347Z,3.17
2022-10-14T12:31:36.610Z,2.85
2022-10-14T12:34:29.064Z,2.83
2022-10-14T12:37:02.432Z,3.05
2022-10-14T12:39:43.828Z,3.17
2022-10-14T12:42:17.546Z,3.20
2022-10-14T12:44:56.122Z,3.35
2022-10-14T12:47:33.191Z,3.20
2022-10-14T12:50:26.510Z,2.60
2022-10-14T12:53:05.649Z,3.17
2022-10-14T12:55:51.728Z,2.78
2022-10-14T12:58:31.318Z,2.80
2022-10-14T13:01:17.990Z,3.33
2022-10-14T13:06:43.171Z,3.33
2022-10-14T13:09:38.046Z,2.80
2022-10-14T13:12:52.493Z,3.13
2022-10-14T13:15:53.373Z,2.65
2022-10-14T13:19:05.560Z,2.28
2022-10-14T13:22:01.460Z,2.42
2022-10-14T13:24:43.620Z,2.40
2022-10-14T13:27:32.959Z,2.17
2022-10-14T13:30:17.274Z,2.58
2022-10-14T13:33:00.707Z,3.05
2022-10-14T13:35:43.764Z,2.17
2022-10-14T13:38:18.955Z,2.30
2022-10-14T13:40:56.011Z,1.92
2022-10-14T13:43:30.537Z,1.90
2022-10-14T13:46:11.000Z,1.42
2022-10-14T13:48:49.504Z,1.90
2022-10-14T13:51:36.693Z,1.67
2022-10-14T13:54:16.550Z,1.63
2022-10-14T14:02:59.783Z,1.90
2022-10-14T14:05:38.767Z,1.48
2022-10-14T14:08:42.667Z,1.60
2022-10-14T14:11:21.756Z,2.38
2022-10-14T14:14:01.805Z,1.70
2022-10-14T14:16:41.113Z,1.33
2022-10-14T14:19:25.577Z,2.03
2022-10-14T14:22:19.715Z,1.70
2022-10-14T14:24:58.141Z,1.55
2022-10-14T14:27:34.922Z,1.80
2022-10-14T14:30:29.496Z,2.25
2022-10-14T14:33:15.484Z,1.83
2022-10-14T14:36:00.147Z,1.63
2022-10-14T14:38:38.712Z,2.00
2022-10-14T14:41:25.636Z,1.45
2022-10-14T14:44:24.471Z,1.80
2022-10-14T14:46:59.498Z,1.98
2022-10-14T14:49:36.281Z,1.67
2022-10-14T14:52:13.837Z,1.50
2022-10-14T14:54:49.039Z,1.50
2022-10-14T14:57:25.644Z,1.73
2022-10-14T15:00:03.821Z,2.20
2022-10-14T15:02:36.900Z,1.88
2022-10-14T15:05:11.700Z,2.25
2022-10-14T15:07:45.029Z,1.92
2022-10-14T15:10:25.937Z,2.42
2022-10-14T15:13:02.625Z,2.05
2022-10-14T15:15:39.654Z,1.60
2022-10-14T15:18:17.195Z,1.50
2022-10-14T15:20:50.264Z,1.25
2022-10-14T15:23:43.804Z,1.65
2022-10-14T15:29:14.678Z,1.45
2022-10-14T15:34:24.314Z,1.30
2022-10-14T15:36:57.813Z,1.30
2022-10-14T15:39:32.187Z,1.65
2022-10-14T15:42:12.915Z,1.40
2022-10-14T15:44:45.608Z,1.98
2022-10-14T15:47:20.832Z,1.38
2022-10-14T15:49:53.750Z,0.97
2022-10-14T15:52:27.130Z,1.73
2022-10-14T15:55:00.193Z,1.38
2022-10-14T16:00:12.925Z,1.73
2022-10-14T16:02:47.296Z,1.50
2022-10-14T16:05:20.943Z,1.50
2022-10-14T16:07:53.853Z,1.30
2022-10-14T16:10:29.317Z,1.60
2022-10-14T16:13:06.729Z,1.63
2022-10-14T16:15:48.273Z,1.50
2022-10-14T16:18:24.648Z,1.58
2022-10-14T16:21:00.986Z,1.33
2022-10-14T16:26:24.927Z,1.50
2022-10-14T16:31:35.829Z,1.90
2022-10-14T16:34:11.246Z,1.58
2022-10-14T16:36:48.971Z,2.47
2022-10-14T16:39:24.512Z,2.72
2022-10-14T16:44:47.448Z,2.83
2022-10-14T16:47:26.185Z,3.08
2022-10-14T16:50:27.820Z,2.85
2022-10-14T16:53:20.160Z,2.50
2022-10-14T16:56:03.935Z,2.88
2022-10-14T17:01:42.498Z,3.25
2022-10-14T17:04:27.357Z,2.90
2022-10-14T17:07:13.057Z,2.65
2022-10-14T17:09:54.407Z,2.80
2022-10-14T17:12:41.991Z,3.15
2022-10-14T17:15:20.846Z,3.17
2022-10-14T17:18:12.486Z,3.13
2022-10-14T17:20:53.842Z,2.53
2022-10-14T17:23:36.062Z,2.70
2022-10-14T17:26:15.251Z,2.88
2022-10-14T17:29:06.527Z,4.65
2022-10-14T17:31:52.713Z,4.80
2022-10-14T17:34:29.808Z,5.00
2022-10-14T17:39:55.800Z,6.72
2022-10-14T17:42:56.307Z,7.25
2022-10-14T17:45:48.713Z,6.72
2022-10-14T17:48:31.125Z,7.40
2022-10-14T17:51:14.414Z,7.30
2022-10-14T17:54:01.832Z,9.13
2022-10-14T17:56:50.149Z,8.20
2022-10-14T17:59:26.394Z,7.80
2022-10-14T18:02:14.760Z,8.10
2022-10-14T18:04:51.801Z,7.70
2022-10-14T18:07:36.244Z,7.68
2022-10-14T18:10:17.242Z,7.63
2022-10-14T18:12:51.882Z,7.82
2022-10-14T18:15:31.030Z,8.30
2022-10-14T18:18:04.964Z,8.05
2022-10-14T18:20:41.159Z,7.82
2022-10-14T18:23:19.497Z,7.72
2022-10-14T18:29:05.385Z,8.85
2022-10-14T18:31:43.031Z,9.65
2022-10-14T18:34:22.448Z,9.18
2022-10-14T18:36:58.545Z,9.80
2022-10-14T18:39:36.075Z,9.43
2022-10-14T18:42:22.446Z,9.77
2022-10-14T18:45:02.200Z,9.45
2022-10-14T18:48:19.191Z,9.23
2022-10-14T18:51:32.098Z,9.43
2022-10-14T18:54:12.005Z,9.52
2022-10-14T18:56:53.557Z,9.23
2022-10-14T18:59:55.842Z,9.20
2022-10-14T19:02:36.435Z,10.45
2022-10-14T19:05:18.131Z,10.63
2022-10-14T19:08:01.039Z,10.40
2022-10-14T19:10:35.648Z,10.68
2022-10-14T19:13:12.176Z,10.10
2022-10-14T19:16:00.740Z,9.85
2022-10-14T19:18:34.077Z,10.43
2022-10-14T19:21:10.076Z,9.55
2022-10-14T19:23:45.106Z,10.98
2022-10-14T19:26:26.761Z,10.35
2022-10-14T19:29:11.480Z,9.60
2022-10-14T19:31:47.001Z,10.68
2022-10-14T19:35:05.737Z,9.98
2022-10-14T19:37:41.753Z,10.18
2022-10-14T19:40:23.831Z,9.63
2022-10-14T19:43:06.438Z,10.52
2022-10-14T19:45:45.745Z,10.25
2022-10-14T19:48:25.151Z,9.60
2022-10-14T19:51:07.264Z,9.13
2022-10-14T19:53:43.533Z,8.68
2022-10-14T19:56:26.088Z,9.70
2022-10-14T19:59:03.331Z,9.55
2022-10-14T20:01:44.144Z,9.48
2022-10-14T20:04:23.936Z,9.20
2022-10-14T20:07:00.521Z,8.43
2022-10-14T20:09:45.120Z,9.18
2022-10-14T20:12:22.161Z,9.38
2022-10-14T20:14:59.751Z,9.05
2022-10-14T20:17:43.893Z,8.40
2022-10-14T20:20:20.175Z,8.20
2022-10-14T20:22:56.708Z,8.32
2022-10-14T20:25:30.101Z,8.43
2022-10-14T20:28:05.870Z,7.95
2022-10-14T20:30:42.554Z,8.30
2022-10-14T20:33:19.413Z,9.18
2022-10-14T20:36:01.107Z,8.10
2022-10-14T20:38:45.296Z,7.85
2022-10-14T20:41:24.481Z,7.97
2022-10-14T20:43:58.680Z,7.72
2022-10-14T20:46:35.994Z,8.02
2022-10-14T20:49:12.600Z,8.93
2022-10-14T20:51:45.852Z,7.63
2022-10-14T20:54:22.669Z,7.72
2022-10-14T20:57:03.869Z,9.93
2022-10-14T20:59:44.036Z,7.63
2022-10-14T21:02:23.841Z,9.15
2022-10-14T21:05:01.702Z,8.98
2022-10-14T21:07:38.078Z,8.90
2022-10-14T21:10:13.880Z,9.85
2022-10-14T21:12:48.875Z,9.95
2022-10-14T21:15:27.004Z,10.43
2022-10-14T21:18:00.442Z,11.25
2022-10-14T21:20:37.071Z,10.65
2022-10-14T21:23:10.237Z,11.95
2022-10-14T21:25:46.395Z,11.77
2022-10-14T21:28:22.243Z,11.32
2022-10-14T21:31:04.474Z,12.15
2022-10-14T21:33:38.172Z,10.85
2022-10-14T21:36:18.130Z,12.25
2022-10-14T21:38:57.008Z,12.05
2022-10-14T21:41:30.484Z,11.73
2022-10-14T21:44:03.749Z,11.93
2022-10-14T21:46:36.929Z,12.30
2022-10-14T21:49:12.235Z,12.40
2022-10-14T21:51:57.666Z,12.60
2022-10-14T21:54:32.517Z,11.73
2022-10-14T21:57:14.574Z,10.98
2022-10-14T21:59:58.210Z,12.00
2022-10-14T22:02:33.830Z,12.00
2022-10-14T22:05:10.025Z,11.82
2022-10-14T22:07:44.592Z,10.95
2022-10-14T22:10:41.103Z,12.38
2022-10-14T22:13:37.928Z,11.00
2022-10-14T22:16:11.452Z,11.82
2022-10-14T22:18:46.781Z,11.85
2022-10-14T22:21:22.643Z,11.40
2022-10-14T22:23:58.482Z,12.38
2022-10-14T22:26:32.778Z,11.57
2022-10-14T22:29:12.337Z,12.35
2022-10-14T22:31:46.438Z,11.55
2022-10-14T22:34:20.884Z,11.68
2022-10-14T22:36:53.871Z,13.18
2022-10-14T22:42:02.460Z,12.40
2022-10-14T22:44:35.528Z,12.05
2022-10-14T22:49:44.247Z,12.60
2022-10-14T22:54:53.937Z,12.65
2022-10-14T22:57:28.598Z,13.00
2022-10-14T23:00:01.601Z,14.20
2022-10-14T23:05:08.954Z,13.00
2022-10-14T23:07:42.006Z,13.80
2022-10-14T23:10:16.968Z,14.00
2022-10-14T23:12:49.847Z,14.38
2022-10-14T23:15:22.770Z,14.52
2022-10-14T23:17:55.821Z,14.63
2022-10-14T23:23:03.007Z,14.43
2022-10-14T23:25:41.186Z,16.35
2022-10-14T23:28:15.907Z,15.63
2022-10-14T23:30:49.170Z,15.85
2022-10-14T23:33:24.404Z,14.23
2022-10-14T23:36:03.865Z,14.52
2022-10-14T23:38:37.411Z,15.43
2022-10-14T23:41:13.662Z,15.43
2022-10-14T23:43:52.774Z,15.93
2022-10-14T23:46:34.681Z,15.43
2022-10-14T23:49:24.975Z,14.73
2022-10-14T23:51:59.431Z,13.88
2022-10-14T23:54:34.863Z,15.60
2022-10-14T23:59:44.878Z,15.32
